Time;durP1;ratioP1;P1;durP2;ratioP2;P2;SDS_P1;SDS_P2;PMS_P1;PMS_P2;Temp;Humidity;BMP_temperature;BMP_pressure;BME280_temperature;BME280_humidity;BME280_pressure;Samples;Min_cycle;Max_cycle;Signal;HPM_P1;HPM_P2
2023/08/28 00:01:17;;;;;;;3.22;2.83;;;;;;;11.82;100.00;101168.25;6280728;22;20012;-73
2023/08/28 00:03:43;;;;;;;4.15;2.85;;;;;;;11.81;100.00;101156.84;6280907;22;20043;-74
2023/08/28 00:06:10;;;;;;;2.83;2.70;;;;;;;11.80;100.00;101151.94;6280281;22;20012;-74
2023/08/28 00:08:37;;;;;;;3.58;3.28;;;;;;;11.80;100.00;101160.69;6280234;22;20087;-72
2023/08/28 00:11:04;;;;;;;3.58;3.28;;;;;;;11.80;100.00;101165.28;6253452;22;20346;-74
2023/08/28 00:13:30;;;;;;;2.95;2.72;;;;;;;11.79;100.00;101163.78;6251838;22;20026;-74
2023/08/28 00:15:57;;;;;;;2.65;2.45;;;;;;;11.76;100.00;101164.63;6253239;22;20363;-75
2023/08/28 00:18:23;;;;;;;4.18;2.80;;;;;;;11.74;100.00;101173.06;6279394;22;20350;-72
2023/08/28 00:20:50;;;;;;;3.65;2.95;;;;;;;11.72;100.00;101167.44;6280768;22;20039;-74
2023/08/28 00:23:17;;;;;;;3.13;2.92;;;;;;;11.70;100.00;101173.19;6281094;22;20012;-74
2023/08/28 00:25:44;;;;;;;2.72;2.53;;;;;;;11.68;100.00;101174.81;6280710;22;20016;-74
2023/08/28 00:28:11;;;;;;;3.30;3.00;;;;;;;11.66;100.00;101169.91;6280757;22;20095;-74
2023/08/28 00:30:37;;;;;;;6.18;2.78;;;;;;;11.66;100.00;101177.16;6252322;22;20022;-74
2023/08/28 00:33:04;;;;;;;2.60;2.40;;;;;;;11.65;100.00;101179.09;6252685;22;20102;-73
2023/08/28 00:35:31;;;;;;;2.90;2.47;;;;;;;11.62;100.00;101176.53;6252488;22;20027;-73
2023/08/28 00:37:58;;;;;;;2.67;2.40;;;;;;;11.61;100.00;101178.47;6280984;22;20038;-74
2023/08/28 00:40:24;;;;;;;2.60;2.40;;;;;;;11.60;100.00;101181.56;6252756;22;20027;-73
2023/08/28 00:42:52;;;;;;;3.20;2.50;;;;;;;11.61;100.00;101185.72;6253783;22;20042;-73
2023/08/28 00:45:19;;;;;;;2.85;2.65;;;;;;;11.62;100.00;101187.22;6279980;22;20082;-72
2023/08/28 00:47:46;;;;;;;4.68;2.60;;;;;;;11.61;100.00;101194.47;6252831;22;20048;-73
2023/08/28 00:50:13;;;;;;;3.05;2.67;;;;;;;11.62;100.00;101193.28;6280884;22;20382;-73
2023/08/28 00:52:40;;;;;;;2.78;2.58;;;;;;;11.62;100.00;101197.88;6280352;22;20094;-73
2023/08/28 00:55:06;;;;;;;3.13;2.53;;;;;;;11.60;100.00;101189.56;6253453;22;20031;-74
2023/08/28 00:57:33;;;;;;;2.90;2.60;;;;;;;11.60;100.00;101187.66;6252403;22;20174;-74
2023/08/28 01:00:01;;;;;;;2.50;2.40;;;;;;;11.59;100.00;101188.09;6253290;22;20020;-73
2023/08/28 01:02:28;;;;;;;2.42;2.22;;;;;;;11.59;100.00;101186.19;6251842;22;20020;-74
2023/08/28 01:04:55;;;;;;;4.32;2.70;;;;;;;11.59;100.00;101193.44;6280615;22;20091;-74
2023/08/28 01:07:25;;;;;;;3.38;2.65;;;;;;;11.60;100.00;101189.56;6252781;22;20429;-73
2023/08/28 01:10:04;;;;;;;5.43;2.97;;;;;;;11.62;100.00;101189.88;6280697;22;20052;-73
2023/08/28 01:12:43;;;;;;;5.18;2.60;;;;;;;11.64;100.00;101187.53;6252988;22;20016;-73
2023/08/28 01:15:17;;;;;;;3.97;2.60;;;;;;;11.64;100.00;101190.19;6253271;22;20099;-74
2023/08/28 01:17:48;;;;;;;6.43;2.70;;;;;;;11.64;100.00;101188.28;6253317;22;20099;-73
2023/08/28 01:20:15;;;;;;;6.05;2.53;;;;;;;11.62;100.00;101185.28;6280773;22;20020;-74
2023/08/28 01:22:50;;;;;;;2.30;2.20;;;;;;;11.62;100.00;101181.88;6252677;22;20404;-73
2023/08/28 01:25:18;;;;;;;3.85;2.50;;;;;;;11.61;100.00;101180.38;6280483;22;20091;-73
2023/08/28 01:27:46;;;;;;;3.47;2.53;;;;;;;11.59;100.00;101188.09;6253204;22;20047;-73
2023/08/28 01:30:15;;;;;;;3.20;2.45;;;;;;;11.61;100.00;101177.72;6253183;22;20023;-73
2023/08/28 01:32:43;;;;;;;2.72;2.53;;;;;;;11.63;100.00;101194.03;6279026;22;20047;-73
2023/08/28 01:35:31;;;;;;;2.97;2.65;;;;;;;11.64;100.00;101180.25;6280149;22;20019;-73
2023/08/28 01:38:17;;;;;;;3.03;2.50;;;;;;;11.66;100.00;101177.91;6253414;22;20020;-73
2023/08/28 01:40:52;;;;;;;3.17;2.88;;;;;;;11.63;100.00;101184.13;6252981;22;20023;-73
2023/08/28 01:43:22;;;;;;;2.63;2.53;;;;;;;11.60;100.00;101176.97;6227146;22;20454;-73
2023/08/28 01:45:52;;;;;;;2.67;2.47;;;;;;;11.59;100.00;101177.44;6279752;22;20012;-73
2023/08/28 01:48:19;;;;;;;2.58;2.47;;;;;;;11.57;100.00;101174.47;6279715;22;20046;-73
2023/08/28 01:50:47;;;;;;;3.00;2.80;;;;;;;11.56;100.00;101167.66;6252915;22;20070;-73
2023/08/28 01:53:14;;;;;;;2.85;2.65;;;;;;;11.55;100.00;101166.91;6253210;22;20452;-73
2023/08/28 01:55:46;;;;;;;6.53;2.90;;;;;;;11.55;100.00;101163.50;6252198;22;20020;-73
2023/08/28 01:58:15;;;;;;;3.72;2.45;;;;;;;11.52;100.00;101156.34;6252836;22;20020;-73
2023/08/28 02:00:42;;;;;;;5.20;2.63;;;;;;;11.51;100.00;101160.22;6251639;22;20020;-73
2023/08/28 02:03:09;;;;;;;5.30;2.50;;;;;;;11.48;100.00;101156.47;6280424;22;20019;-73
2023/08/28 02:05:36;;;;;;;3.13;2.58;;;;;;;11.46;100.00;101166.84;6279543;22;20023;-73
2023/08/28 02:08:04;;;;;;;2.83;2.50;;;;;;;11.43;100.00;101164.28;6252988;22;20024;-73
2023/08/28 02:10:31;;;;;;;3.10;2.50;;;;;;;11.41;100.00;101162.06;6279619;22;20024;-73
2023/08/28 02:12:57;;;;;;;2.53;2.33;;;;;;;11.38;100.00;101162.19;6253031;22;20435;-73
2023/08/28 02:15:24;;;;;;;2.40;2.30;;;;;;;11.32;100.00;101162.75;6278646;22;20024;-73
2023/08/28 02:17:51;;;;;;;2.80;2.60;;;;;;;11.29;100.00;101158.28;6280137;22;20078;-73
2023/08/28 02:20:17;;;;;;;2.97;2.53;;;;;;;11.27;100.00;101159.88;6252483;22;20020;-73
2023/08/28 02:22:44;;;;;;;7.63;2.63;;;;;;;11.24;100.00;101166.81;6252921;22;20071;-73
2023/08/28 02:25:10;;;;;;;4.07;2.40;;;;;;;11.23;100.00;101175.25;6280012;22;20023;-73
2023/08/28 02:27:37;;;;;;;3.65;2.78;;;;;;;11.22;100.00;101161.19;6251933;22;20357;-73
2023/08/28 02:30:05;;;;;;;3.05;2.85;;;;;;;11.25;100.00;101162.22;6252172;22;20016;-73
2023/08/28 02:32:32;;;;;;;2.90;2.70;;;;;;;11.25;100.00;101147.00;6251899;22;20017;-72
2023/08/28 02:34:58;;;;;;;3.38;3.05;;;;;;;11.26;100.00;101145.81;6252383;22;20410;-72
2023/08/28 02:37:25;;;;;;;3.60;3.40;;;;;;;11.26;100.00;101137.06;6253318;22;20051;-72
2023/08/28 02:39:51;;;;;;;3.10;2.90;;;;;;;11.25;100.00;101139.00;6254109;22;20078;-71
2023/08/28 02:42:18;;;;;;;6.97;3.78;;;;;;;11.23;100.00;101125.34;6253341;22;20075;-72
2023/08/28 02:44:45;;;;;;;4.78;3.35;;;;;;;11.22;100.00;101136.44;6280723;22;20012;-72
2023/08/28 02:47:11;;;;;;;4.15;2.80;;;;;;;11.19;100.00;101132.00;6253733;22;20024;-72
2023/08/28 02:49:38;;;;;;;3.17;2.88;;;;;;;11.14;100.00;101138.63;6253118;22;20485;-73
2023/08/28 02:52:05;;;;;;;3.13;2.85;;;;;;;11.08;100.00;101135.03;6281481;22;20438;-74
2023/08/28 02:54:31;;;;;;;5.25;2.67;;;;;;;11.03;100.00;101136.34;6227878;22;20023;-72
2023/08/28 02:57:00;;;;;;;2.90;2.65;;;;;;;11.05;100.00;101132.50;6253405;22;20028;-72
2023/08/28 02:59:29;;;;;;;2.50;2.40;;;;;;;11.05;100.00;101137.81;6252668;22;20448;-72
2023/08/28 03:01:57;;;;;;;2.42;2.33;;;;;;;11.00;100.00;101136.44;6254072;22;20016;-72
2023/08/28 03:04:23;;;;;;;2.50;2.40;;;;;;;10.99;100.00;101125.06;6253062;22;20016;-72
2023/08/28 03:06:50;;;;;;;2.33;2.22;;;;;;;10.98;100.00;101123.56;6253667;22;20024;-72
2023/08/28 03:09:17;;;;;;;2.80;2.60;;;;;;;10.94;100.00;101124.84;6253814;22;20024;-72
2023/08/28 03:11:43;;;;;;;2.47;2.38;;;;;;;10.94;100.00;101136.25;6228552;22;20071;-72
2023/08/28 03:14:10;;;;;;;2.50;2.38;;;;;;;10.90;100.00;101146.28;6280412;22;20016;-72
2023/08/28 03:16:37;;;;;;;2.78;2.50;;;;;;;10.89;100.00;101144.03;6252946;22;20086;-71
2023/08/28 03:19:03;;;;;;;2.47;2.38;;;;;;;10.91;100.00;101147.03;6253768;22;20048;-72
2023/08/28 03:21:30;;;;;;;4.80;2.60;;;;;;;10.89;100.00;101147.44;6253037;22;20017;-72
2023/08/28 03:23:57;;;;;;;4.15;2.40;;;;;;;10.88;100.00;101147.88;6281171;22;20012;-72
2023/08/28 03:26:25;;;;;;;2.97;2.17;;;;;;;10.81;100.00;101150.78;6252925;22;20051;-72
2023/08/28 03:28:52;;;;;;;2.30;2.20;;;;;;;10.77;100.00;101158.91;6253110;22;20025;-73
2023/08/28 03:31:21;;;;;;;3.17;2.40;;;;;;;10.76;100.00;101165.41;6252988;22;20095;-73
2023/08/28 03:33:48;;;;;;;5.40;2.50;;;;;;;10.77;100.00;101171.47;6253594;22;20020;-72
2023/08/28 03:36:15;;;;;;;2.97;2.67;;;;;;;10.76;100.00;101170.72;6253608;22;20454;-73
2023/08/28 03:38:42;;;;;;;3.08;2.80;;;;;;;10.78;100.00;101178.28;6280628;22;20070;-72
2023/08/28 03:41:09;;;;;;;3.53;3.22;;;;;;;10.77;100.00;101185.53;6281179;22;20411;-73
2023/08/28 03:43:35;;;;;;;2.90;2.80;;;;;;;10.78;100.00;101187.03;6279757;22;20472;-72
2023/08/28 03:46:02;;;;;;;3.67;2.67;;;;;;;10.78;100.00;101195.03;6253827;22;20083;-72
2023/08/28 03:48:29;;;;;;;3.08;2.88;;;;;;;10.77;100.00;101198.84;6252947;22;20501;-73
2023/08/28 03:50:56;;;;;;;3.30;3.10;;;;;;;10.76;100.00;101193.94;6253929;22;20035;-72
2023/08/28 03:53:22;;;;;;;3.30;3.10;;;;;;;10.76;100.00;101204.59;6280223;22;20454;-72
2023/08/28 03:55:49;;;;;;;3.95;3.05;;;;;;;10.75;100.00;101190.53;6253339;22;20028;-72
2023/08/28 03:58:17;;;;;;;4.40;3.13;;;;;;;10.74;100.00;101196.31;6227409;22;20024;-72
2023/08/28 04:00:43;;;;;;;3.17;2.88;;;;;;;10.72;100.00;101196.72;6281032;22;20024;-72
2023/08/28 04:03:10;;;;;;;3.30;3.05;;;;;;;10.71;100.00;101197.16;6281049;22;20035;-72
2023/08/28 04:05:39;;;;;;;5.05;3.10;;;;;;;10.70;100.00;101209.72;6252801;22;20432;-72
2023/08/28 04:08:06;;;;;;;3.20;3.00;;;;;;;10.68;100.00;101212.81;6253346;22;20028;-72
2023/08/28 04:10:33;;;;;;;3.67;3.25;;;;;;;10.70;100.00;101212.38;6252183;22;20058;-72
2023/08/28 04:12:59;;;;;;;4.18;3.20;;;;;;;10.69;100.00;101213.56;6253432;22;20039;-72
2023/08/28 04:15:27;;;;;;;3.92;2.90;;;;;;;10.71;100.00;101205.16;6252482;22;20024;-72
2023/08/28 04:17:54;;;;;;;3.60;3.35;;;;;;;10.73;100.00;101205.47;6253446;22;20470;-72
2023/08/28 04:20:21;;;;;;;4.13;3.47;;;;;;;10.74;100.00;101207.69;6252876;22;20027;-72
2023/08/28 04:22:47;;;;;;;3.50;3.20;;;;;;;10.76;100.00;101210.69;6253588;22;20016;-72
2023/08/28 04:25:14;;;;;;;3.38;3.17;;;;;;;10.80;100.00;101218.53;6252991;22;20052;-72
2023/08/28 04:27:41;;;;;;;3.80;3.50;;;;;;;10.81;100.00;101230.66;6252600;22;20024;-72
2023/08/28 04:30:09;;;;;;;3.60;3.40;;;;;;;10.81;100.00;101234.06;6280996;22;20438;-72
2023/08/28 04:32:36;;;;;;;3.53;3.33;;;;;;;10.86;100.00;101235.47;6227273;22;20408;-72
2023/08/28 04:35:03;;;;;;;9.85;3.58;;;;;;;10.91;100.00;101233.00;6253369;22;20529;-72
2023/08/28 04:37:30;;;;;;;4.13;3.80;;;;;;;10.94;100.00;101248.13;6280280;22;20103;-72
2023/08/28 04:39:57;;;;;;;3.80;3.50;;;;;;;10.99;100.00;101238.84;6252712;22;20039;-72
2023/08/28 04:42:24;;;;;;;3.67;3.38;;;;;;;11.02;100.00;101244.06;6279928;22;20019;-72
2023/08/28 04:44:50;;;;;;;3.40;3.13;;;;;;;11.06;100.00;101240.56;6253252;22;20021;-72
2023/08/28 04:47:17;;;;;;;3.72;3.42;;;;;;;11.10;100.00;101238.53;6253265;22;20030;-75
2023/08/28 04:49:44;;;;;;;4.15;3.85;;;;;;;11.12;100.00;101244.16;6253384;22;20078;-74
2023/08/28 04:52:10;;;;;;;3.85;3.65;;;;;;;11.13;100.00;101250.97;6253232;22;20076;-73
2023/08/28 04:54:37;;;;;;;3.70;3.50;;;;;;;11.17;100.00;101240.94;6252189;22;20956;-75
2023/08/28 04:57:04;;;;;;;3.60;3.40;;;;;;;11.20;100.00;101248.81;6280188;22;20354;-74
2023/08/28 04:59:30;;;;;;;4.63;3.70;;;;;;;11.24;100.00;101246.03;6252213;22;20414;-75
2023/08/28 05:01:57;;;;;;;3.97;3.67;;;;;;;11.27;100.00;101243.25;6253330;22;20016;-75
2023/08/28 05:04:25;;;;;;;4.20;3.47;;;;;;;11.30;100.00;101247.72;6252640;22;20020;-75
2023/08/28 05:06:52;;;;;;;4.43;3.90;;;;;;;11.34;100.00;101245.69;6280803;22;20048;-75
2023/08/28 05:09:18;;;;;;;5.03;4.07;;;;;;;11.38;100.00;101242.16;6227045;22;20099;-75
2023/08/28 05:11:45;;;;;;;4.65;4.35;;;;;;;11.41;100.00;101241.28;6253274;22;20020;-76
2023/08/28 05:14:11;;;;;;;4.38;4.00;;;;;;;11.44;100.00;101241.16;6253273;22;20026;-75
2023/08/28 05:16:38;;;;;;;5.20;4.80;;;;;;;11.48;100.00;101241.06;6279582;22;20078;-75
2023/08/28 05:19:04;;;;;;;5.35;4.85;;;;;;;11.51;100.00;101242.84;6253218;22;20047;-75
2023/08/28 05:21:31;;;;;;;4.78;4.47;;;;;;;11.52;100.00;101242.44;6252603;22;20430;-75
2023/08/28 05:23:58;;;;;;;5.95;4.68;;;;;;;11.54;100.00;101245.41;6280243;22;20023;-75
2023/08/28 05:26:24;;;;;;;4.70;4.25;;;;;;;11.55;100.00;101254.88;6279972;22;20016;-75
2023/08/28 05:28:52;;;;;;;6.70;4.10;;;;;;;11.57;100.00;101246.47;6253025;22;20016;-75
2023/08/28 05:31:19;;;;;;;5.60;4.07;;;;;;;11.60;100.00;101240.22;6279890;22;20016;-75
2023/08/28 05:33:46;;;;;;;4.20;3.90;;;;;;;11.61;100.00;101233.72;6227775;22;20024;-75
2023/08/28 05:36:13;;;;;;;5.80;4.30;;;;;;;11.64;100.00;101236.28;6252939;22;20016;-74
2023/08/28 05:38:40;;;;;;;9.57;4.57;;;;;;;11.69;100.00;101240.31;6279569;22;20016;-74
2023/08/28 05:41:06;;;;;;;6.20;4.18;;;;;;;11.75;100.00;101243.16;6253037;22;20091;-74
2023/08/28 05:43:33;;;;;;;6.38;4.32;;;;;;;11.80;100.00;101231.97;6252447;22;20020;-75
2023/08/28 05:45:59;;;;;;;4.63;4.32;;;;;;;11.85;100.00;101234.81;6252961;22;20095;-75
2023/08/28 05:48:26;;;;;;;6.28;4.53;;;;;;;12.44;100.00;101226.91;6252389;22;20016;-74
2023/08/28 05:50:53;;;;;;;5.00;4.50;;;;;;;12.89;100.00;101242.31;6253035;22;20416;-74
2023/08/28 05:53:20;;;;;;;4.70;4.30;;;;;;;12.75;100.00;101245.56;6251997;22;20020;-75
2023/08/28 05:55:47;;;;;;;5.90;4.38;;;;;;;12.71;100.00;101239.63;6253046;22;20024;-75
2023/08/28 05:58:14;;;;;;;4.75;4.25;;;;;;;12.59;100.00;101230.53;6252937;22;20031;-75
2023/08/28 06:00:41;;;;;;;5.70;4.90;;;;;;;12.51;100.00;101237.31;6279798;22;20012;-75
2023/08/28 06:03:08;;;;;;;6.10;4.20;;;;;;;12.49;100.00;101229.75;6227799;22;20530;-75
2023/08/28 06:05:35;;;;;;;4.95;4.53;;;;;;;12.53;100.00;101237.63;6252233;22;20123;-75
2023/08/28 06:08:02;;;;;;;5.25;4.43;;;;;;;12.59;100.00;101235.88;6280131;22;20055;-76
2023/08/28 06:10:29;;;;;;;14.63;6.00;;;;;;;12.65;100.00;101237.53;6252028;22;20052;-76
2023/08/28 06:12:57;;;;;;;9.38;6.00;;;;;;;12.72;100.00;101231.16;6280335;22;20403;-76
2023/08/28 06:15:25;;;;;;;13.50;5.70;;;;;;;12.89;100.00;101228.97;6252336;22;20020;-76
2023/08/28 06:17:51;;;;;;;8.75;5.80;;;;;;;13.91;100.00;101231.19;6280328;22;20095;-76
2023/08/28 06:20:18;;;;;;;8.75;5.22;;;;;;;15.31;100.00;101229.53;6252367;22;20016;-73
2023/08/28 06:22:45;;;;;;;5.05;4.63;;;;;;;15.62;100.00;101221.81;6252406;22;20453;-74
2023/08/28 06:25:11;;;;;;;4.82;4.53;;;;;;;14.94;100.00;101237.13;6252862;22;20020;-73
2023/08/28 06:27:39;;;;;;;4.78;4.47;;;;;;;14.55;100.00;101249.69;6252174;22;20272;-74
2023/08/28 06:30:06;;;;;;;4.80;4.50;;;;;;;14.27;100.00;101251.75;6252831;22;20023;-75
2023/08/28 06:32:33;;;;;;;5.25;4.85;;;;;;;14.12;100.00;101253.56;6252015;22;20026;-75
2023/08/28 06:35:00;;;;;;;5.15;4.75;;;;;;;14.03;100.00;101247.03;6280328;22;20016;-75
2023/08/28 06:37:27;;;;;;;5.28;4.88;;;;;;;14.01;100.00;101246.00;6278688;22;20474;-75
2023/08/28 06:39:54;;;;;;;5.82;4.45;;;;;;;14.02;100.00;101252.84;6280489;22;20035;-75
2023/08/28 06:42:20;;;;;;;4.90;4.53;;;;;;;14.02;100.00;101250.91;6251898;22;20088;-75
2023/08/28 06:44:49;;;;;;;5.32;4.80;;;;;;;14.01;100.00;101254.78;6280248;22;20070;-75
2023/08/28 06:47:16;;;;;;;5.03;4.72;;;;;;;14.00;100.00;101255.97;6280156;22;20450;-76
2023/08/28 06:49:43;;;;;;;5.43;4.90;;;;;;;14.02;100.00;101253.59;6279636;22;20016;-76
2023/08/28 06:52:09;;;;;;;4.53;4.32;;;;;;;14.01;100.00;101257.44;6252009;22;20091;-76
2023/08/28 06:54:36;;;;;;;5.60;5.10;;;;;;;13.99;100.00;101259.84;6279239;22;20016;-74
2023/08/28 06:57:17;;;;;;;5.60;4.97;;;;;;;14.03;100.00;101265.78;6279550;22;20020;-74
2023/08/28 06:59:43;;;;;;;5.60;5.00;;;;;;;14.06;100.00;101261.47;6279722;22;20424;-74
2023/08/28 07:02:10;;;;;;;6.30;5.35;;;;;;;14.06;100.00;101264.13;6279648;22;20331;-74
2023/08/28 07:04:37;;;;;;;5.47;5.05;;;;;;;14.13;100.00;101266.50;6278474;22;20516;-77
2023/08/28 07:07:03;;;;;;;5.25;4.82;;;;;;;14.32;100.00;101272.56;6279753;22;20063;-74
2023/08/28 07:09:30;;;;;;;5.68;5.13;;;;;;;14.53;100.00;101274.25;6279041;22;20087;-74
2023/08/28 07:11:57;;;;;;;6.05;5.45;;;;;;;14.68;100.00;101277.03;6279714;22;20023;-74
2023/08/28 07:14:25;;;;;;;6.60;5.07;;;;;;;14.78;100.00;101270.44;6278838;22;20016;-74
2023/08/28 07:16:51;;;;;;;5.68;5.07;;;;;;;14.89;100.00;101262.59;6279516;22;20024;-74
2023/08/28 07:19:18;;;;;;;5.28;4.85;;;;;;;14.99;100.00;101269.41;6251193;22;20051;-74
2023/08/28 07:21:45;;;;;;;4.68;4.45;;;;;;;15.09;100.00;101266.66;6279832;22;20020;-73
2023/08/28 07:24:11;;;;;;;8.85;4.70;;;;;;;15.25;100.00;101263.56;6254379;22;20012;-73
2023/08/28 07:26:38;;;;;;;4.80;4.43;;;;;;;15.39;100.00;101265.53;6280445;22;20044;-74
2023/08/28 07:29:04;;;;;;;4.90;4.35;;;;;;;15.53;100.00;101272.13;6281408;22;20375;-74
2023/08/28 07:31:32;;;;;;;9.00;4.45;;;;;;;15.68;100.00;101270.97;6280588;22;20508;-74
2023/08/28 07:34:04;;;;;;;5.30;4.13;;;;;;;15.84;100.00;101269.03;6253370;22;20386;-74
2023/08/28 07:36:31;;;;;;;4.18;3.88;;;;;;;15.95;100.00;101271.91;6280399;22;20109;-74
2023/08/28 07:38:58;;;;;;;3.90;3.60;;;;;;;16.11;100.00;101276.06;6281204;22;20462;-74
2023/08/28 07:41:24;;;;;;;3.45;3.25;;;;;;;16.30;100.00;101274.66;6280402;22;20022;-74
2023/08/28 07:43:51;;;;;;;5.13;3.55;;;;;;;16.44;100.00;101273.13;6281048;22;20012;-74
2023/08/28 07:46:17;;;;;;;3.28;3.13;;;;;;;16.65;100.00;101277.38;6280560;22;20016;-73
2023/08/28 07:48:44;;;;;;;5.20;3.15;;;;;;;16.84;100.00;101273.22;6253219;22;20031;-74
2023/08/28 07:51:11;;;;;;;3.80;3.05;;;;;;;16.94;100.00;101274.56;6280687;22;20055;-74
2023/08/28 07:53:38;;;;;;;3.25;2.70;;;;;;;17.14;100.00;101268.47;6280772;22;20039;-74
2023/08/28 07:56:04;;;;;;;2.47;2.28;;;;;;;17.30;100.00;101269.84;6280835;22;20054;-74
2023/08/28 07:58:32;;;;;;;2.78;2.10;;;;;;;17.45;99.99;101275.16;6252784;22;20074;-74
2023/08/28 08:00:59;;;;;;;2.00;1.83;;;;;;;17.57;98.44;101274.06;6280767;22;20016;-75
2023/08/28 08:03:27;;;;;;;1.75;1.65;;;;;;;17.76;98.15;101277.91;6279567;22;20012;-75
2023/08/28 08:05:54;;;;;;;2.72;1.55;;;;;;;17.81;95.32;101277.22;6280991;22;20016;-74
2023/08/28 08:08:21;;;;;;;3.05;1.20;;;;;;;17.89;90.62;101277.53;6279814;22;20424;-74
2023/08/28 08:10:48;;;;;;;1.70;1.40;;;;;;;18.13;90.10;101279.94;6253213;22;20096;-74
2023/08/28 08:13:14;;;;;;;4.13;1.00;;;;;;;18.17;85.77;101278.50;6280556;22;20036;-74
2023/08/28 08:15:42;;;;;;;1.17;1.00;;;;;;;18.28;87.29;101281.28;6280605;22;20100;-74
2023/08/28 08:18:08;;;;;;;3.05;1.10;;;;;;;18.45;85.72;101273.28;6279679;22;20020;-75
2023/08/28 08:20:35;;;;;;;2.25;0.93;;;;;;;18.64;86.47;101284.47;6280513;22;20022;-74
2023/08/28 08:23:02;;;;;;;1.20;1.10;;;;;;;18.73;82.94;101286.97;6281037;22;20520;-75
2023/08/28 08:25:30;;;;;;;1.27;1.15;;;;;;;18.83;85.52;101282.81;6280259;22;20016;-74
2023/08/28 08:27:56;;;;;;;0.90;0.90;;;;;;;19.09;82.88;101287.38;6280936;22;20016;-75
2023/08/28 08:30:25;;;;;;;1.67;0.93;;;;;;;19.26;77.59;101288.13;6280172;22;20079;-75
2023/08/28 08:32:52;;;;;;;2.00;0.95;;;;;;;19.10;77.75;101296.94;6279927;22;20459;-75
2023/08/28 08:35:18;;;;;;;2.85;0.85;;;;;;;19.23;76.03;101295.25;6279722;22;20051;-74
2023/08/28 08:37:47;;;;;;;1.73;0.90;;;;;;;19.38;76.81;101280.81;6253647;22;20024;-74
2023/08/28 08:40:16;;;;;;;2.20;1.10;;;;;;;19.48;75.47;101287.47;6280274;22;20027;-74
2023/08/28 08:42:44;;;;;;;2.25;0.80;;;;;;;19.61;75.63;101291.19;6280897;22;20124;-74
2023/08/28 08:45:10;;;;;;;1.70;0.65;;;;;;;19.78;73.97;101293.19;6280353;22;20019;-75
2023/08/28 08:47:39;;;;;;;0.80;0.80;;;;;;;19.85;72.74;101293.44;6279955;22;20395;-74
2023/08/28 08:50:08;;;;;;;1.25;0.80;;;;;;;19.60;72.24;101300.50;6280642;22;20103;-75
2023/08/28 08:52:38;;;;;;;2.05;0.77;;;;;;;19.55;73.14;101298.56;6280407;22;20099;-74
2023/08/28 08:55:15;;;;;;;2.22;0.80;;;;;;;19.85;70.50;101293.44;6280769;22;20012;-74
2023/08/28 08:57:43;;;;;;;2.33;1.00;;;;;;;20.01;66.98;101291.94;6279814;22;20016;-73
2023/08/28 09:00:12;;;;;;;0.98;0.82;;;;;;;20.07;68.14;101297.34;6280239;22;20446;-74
2023/08/28 09:02:44;;;;;;;2.05;0.82;;;;;;;19.60;66.96;101292.41;6280275;22;20075;-75
2023/08/28 09:05:12;;;;;;;0.65;0.60;;;;;;;19.76;68.03;101290.97;6280069;22;20545;-74
2023/08/28 09:07:39;;;;;;;2.53;0.90;;;;;;;20.11;65.53;101290.47;6280066;22;20020;-74
2023/08/28 09:10:07;;;;;;;1.42;0.93;;;;;;;20.40;65.09;101285.78;6280520;22;20472;-75
2023/08/28 09:12:34;;;;;;;0.88;0.70;;;;;;;20.67;63.97;101284.28;6280063;22;20056;-74
2023/08/28 09:15:02;;;;;;;1.85;1.10;;;;;;;20.74;62.41;101294.59;6279927;22;20443;-77
2023/08/28 09:17:29;;;;;;;2.90;1.20;;;;;;;20.80;66.43;101289.88;6279762;22;20020;-76
2023/08/28 09:19:56;;;;;;;2.38;0.90;;;;;;;20.86;63.65;101291.31;6280395;22;20020;-77
2023/08/28 09:22:27;;;;;;;1.08;0.70;;;;;;;20.85;63.30;101287.16;6279585;22;20022;-76
2023/08/28 09:25:03;;;;;;;0.88;0.88;;;;;;;21.13;62.23;101283.59;6280716;22;20019;-77
2023/08/28 09:27:30;;;;;;;1.30;0.70;;;;;;;21.41;63.01;101280.75;6279769;22;20012;-76
2023/08/28 09:29:56;;;;;;;2.50;1.00;;;;;;;21.60;60.24;101287.03;6279826;22;20020;-78
2023/08/28 09:32:28;;;;;;;1.20;0.80;;;;;;;21.81;59.61;101285.41;6279637;22;20079;-78
2023/08/28 09:34:55;;;;;;;2.47;1.15;;;;;;;21.92;59.81;101287.28;6280359;22;20538;-77
2023/08/28 09:37:21;;;;;;;2.00;0.80;;;;;;;22.19;59.61;101277.47;6279457;22;20033;-77
2023/08/28 09:39:59;;;;;;;0.90;0.75;;;;;;;22.25;59.40;101278.16;6252851;22;20052;-75
2023/08/28 09:42:26;;;;;;;1.00;1.00;;;;;;;22.33;57.61;101283.75;6279605;22;20048;-74
2023/08/28 09:44:52;;;;;;;1.23;0.85;;;;;;;22.32;57.88;101283.03;6279587;22;20577;-75
2023/08/28 09:47:27;;;;;;;1.50;1.10;;;;;;;22.49;57.56;101285.53;6279240;22;20066;-77
2023/08/28 09:49:56;;;;;;;1.90;1.27;;;;;;;22.62;56.35;101280.97;6280317;22;20071;-75
2023/08/28 09:52:26;;;;;;;1.23;1.10;;;;;;;22.90;54.78;101274.50;6279163;22;20023;-75
2023/08/28 09:55:07;;;;;;;1.20;1.10;;;;;;;22.92;56.08;101278.16;6279940;22;20099;-75
2023/08/28 09:57:33;;;;;;;1.15;1.08;;;;;;;22.90;56.19;101288.78;6279031;22;20022;-75
2023/08/28 10:00:02;;;;;;;3.47;1.00;;;;;;;22.41;56.81;101279.22;6279375;22;20016;-75
2023/08/28 10:02:31;;;;;;;1.75;0.70;;;;;;;21.90;56.61;101287.06;6279372;22;20027;-75
2023/08/28 10:04:59;;;;;;;2.55;0.90;;;;;;;21.55;57.33;101279.69;6279927;22;20095;-76
2023/08/28 10:07:26;;;;;;;0.80;0.80;;;;;;;21.32;58.37;101286.47;6279008;22;20122;-75
2023/08/28 10:09:57;;;;;;;3.28;0.70;;;;;;;21.35;59.19;101285.47;6279350;22;20112;-75
2023/08/28 10:12:28;;;;;;;0.80;0.80;;;;;;;21.87;56.74;101296.19;6278929;22;20027;-75
2023/08/28 10:14:56;;;;;;;1.00;0.85;;;;;;;22.22;54.87;101296.16;6279350;22;20346;-75
2023/08/28 10:17:26;;;;;;;0.60;0.60;;;;;;;22.59;53.43;101289.38;6278938;22;20020;-75
2023/08/28 10:19:57;;;;;;;2.03;0.90;;;;;;;22.83;54.22;101296.78;6279664;22;20075;-75
2023/08/28 10:22:25;;;;;;;2.33;1.20;;;;;;;22.86;54.48;101295.75;6278852;22;20454;-74
2023/08/28 10:24:53;;;;;;;2.13;1.05;;;;;;;23.08;53.94;101302.91;6280212;22;20012;-75
2023/08/28 10:27:20;;;;;;;1.30;0.80;;;;;;;23.41;54.31;101290.84;6251835;22;20017;-75
2023/08/28 10:29:47;;;;;;;3.17;0.90;;;;;;;23.56;52.69;101294.59;6279515;22;20024;-75
2023/08/28 10:32:14;;;;;;;1.02;0.90;;;;;;;23.81;49.83;101295.19;6279289;22;20023;-76
2023/08/28 10:34:44;;;;;;;2.25;1.00;;;;;;;23.52;51.38;101290.69;6279172;22;20012;-74
2023/08/28 10:37:13;;;;;;;0.80;0.80;;;;;;;23.10;52.77;101289.56;6278896;22;20446;-74
2023/08/28 10:39:57;;;;;;;1.70;0.85;;;;;;;22.73;52.91;101296.38;6279665;22;20424;-74
2023/08/28 10:42:26;;;;;;;0.90;0.90;;;;;;;22.47;52.89;101294.19;6278140;22;20020;-74
2023/08/28 10:44:53;;;;;;;0.73;0.70;;;;;;;22.34;53.20;101301.50;6279833;22;20016;-74
2023/08/28 10:47:20;;;;;;;0.90;0.80;;;;;;;22.38;53.55;101297.25;6278897;22;20020;-74
2023/08/28 10:49:47;;;;;;;1.05;0.90;;;;;;;22.35;53.12;101292.13;6279539;22;20091;-74
2023/08/28 10:52:18;;;;;;;1.38;0.88;;;;;;;22.33;53.49;101297.31;6252069;22;20040;-74
2023/08/28 10:54:45;;;;;;;0.60;0.60;;;;;;;22.15;51.66;101294.00;6279951;22;20023;-74
2023/08/28 10:57:22;;;;;;;0.73;0.73;;;;;;;22.22;52.91;101292.72;6278506;22;20022;-75
2023/08/28 10:59:50;;;;;;;0.60;0.60;;;;;;;22.56;50.71;101290.41;6280964;22;20480;-76
2023/08/28 11:02:18;;;;;;;0.80;0.80;;;;;;;22.91;51.13;101286.81;6280538;22;20023;-75
2023/08/28 11:04:45;;;;;;;0.80;0.80;;;;;;;23.03;51.07;101295.56;6280977;22;20023;-76
2023/08/28 11:07:21;;;;;;;0.95;0.90;;;;;;;23.10;51.32;101298.44;6280709;22;20019;-74
2023/08/28 11:09:48;;;;;;;1.00;1.00;;;;;;;23.12;50.85;101287.06;6253781;22;20024;-75
2023/08/28 11:12:18;;;;;;;1.00;0.90;;;;;;;23.18;50.63;101282.28;6280030;22;20012;-75
2023/08/28 11:14:57;;;;;;;2.35;1.50;;;;;;;23.09;51.17;101277.94;6281061;22;20076;-74
2023/08/28 11:17:25;;;;;;;0.82;0.82;;;;;;;22.73;50.45;101282.09;6280065;22;20016;-75
2023/08/28 11:19:52;;;;;;;2.85;0.90;;;;;;;22.64;50.10;101280.44;6253776;22;20056;-75
2023/08/28 11:22:28;;;;;;;0.98;0.93;;;;;;;22.86;50.36;101284.91;6280076;22;20023;-75